sensor_id;sensor_type;location;lat;lon;timestamp;P1;durP1;ratioP1;P2;durP2;ratioP2
71091;SDS011;58751;50.708;7.134;2023-02-20T00:00:17;14.00;;;8.50;;
71091;SDS011;58751;50.708;7.134;2023-02-20T00:02:42;13.23;;;9.30;;
71091;SDS011;58751;50.708;7.134;2023-02-20T00:05:07;11.80;;;8.17;;
71091;SDS011;58751;50.708;7.134;2023-02-20T00:07:33;10.53;;;8.20;;
71091;SDS011;58751;50.708;7.134;2023-02-20T00:09:58;12.17;;;6.83;;
71091;SDS011;58751;50.708;7.134;2023-02-20T00:12:24;14.67;;;8.47;;
71091;SDS011;58751;50.708;7.134;2023-02-20T00:14:50;15.20;;;8.15;;
71091;SDS011;58751;50.708;7.134;2023-02-20T00:17:15;12.87;;;7.40;;
71091;SDS011;58751;50.708;7.134;2023-02-20T00:19:40;11.23;;;7.20;;
71091;SDS011;58751;50.708;7.134;2023-02-20T00:22:05;13.97;;;9.10;;
71091;SDS011;58751;50.708;7.134;2023-02-20T00:24:30;12.23;;;8.13;;
71091;SDS011;58751;50.708;7.134;2023-02-20T00:26:56;10.57;;;7.77;;
71091;SDS011;58751;50.708;7.134;2023-02-20T00:29:22;11.67;;;7.10;;
71091;SDS011;58751;50.708;7.134;2023-02-20T00:31:51;13.05;;;8.80;;
71091;SDS011;58751;50.708;7.134;2023-02-20T00:34:16;11.45;;;7.38;;
71091;SDS011;58751;50.708;7.134;2023-02-20T00:36:42;10.20;;;7.50;;
71091;SDS011;58751;50.708;7.134;2023-02-20T00:39:07;11.93;;;7.63;;
71091;SDS011;58751;50.708;7.134;2023-02-20T00:41:32;13.97;;;8.50;;
71091;SDS011;58751;50.708;7.134;2023-02-20T00:43:57;13.33;;;8.80;;
71091;SDS011;58751;50.708;7.134;2023-02-20T00:46:24;12.80;;;8.20;;
71091;SDS011;58751;50.708;7.134;2023-02-20T00:48:49;9.98;;;7.63;;
71091;SDS011;58751;50.708;7.134;2023-02-20T00:51:14;13.40;;;8.40;;
71091;SDS011;58751;50.708;7.134;2023-02-20T00:53:39;13.53;;;8.70;;
71091;SDS011;58751;50.708;7.134;2023-02-20T00:56:05;13.63;;;9.37;;
71091;SDS011;58751;50.708;7.134;2023-02-20T00:58:30;12.63;;;8.13;;
71091;SDS011;58751;50.708;7.134;2023-02-20T01:00:55;11.53;;;7.37;;
71091;SDS011;58751;50.708;7.134;2023-02-20T01:03:22;13.27;;;9.63;;
71091;SDS011;58751;50.708;7.134;2023-02-20T01:05:47;9.07;;;7.03;;
71091;SDS011;58751;50.708;7.134;2023-02-20T01:08:12;11.17;;;6.63;;
71091;SDS011;58751;50.708;7.134;2023-02-20T01:10:37;11.20;;;7.47;;
71091;SDS011;58751;50.708;7.134;2023-02-20T01:13:02;16.17;;;8.90;;
71091;SDS011;58751;50.708;7.134;2023-02-20T01:15:28;8.70;;;6.17;;
71091;SDS011;58751;50.708;7.134;2023-02-20T01:17:53;9.87;;;6.90;;
71091;SDS011;58751;50.708;7.134;2023-02-20T01:20:19;9.30;;;6.70;;
71091;SDS011;58751;50.708;7.134;2023-02-20T01:22:45;7.82;;;6.10;;
71091;SDS011;58751;50.708;7.134;2023-02-20T01:25:10;8.63;;;5.80;;
71091;SDS011;58751;50.708;7.134;2023-02-20T01:27:35;9.13;;;5.60;;
71091;SDS011;58751;50.708;7.134;2023-02-20T01:30:00;8.37;;;6.13;;
71091;SDS011;58751;50.708;7.134;2023-02-20T01:32:26;7.40;;;6.10;;
71091;SDS011;58751;50.708;7.134;2023-02-20T01:34:51;7.37;;;4.60;;
71091;SDS011;58751;50.708;7.134;2023-02-20T01:37:17;5.83;;;5.20;;
71091;SDS011;58751;50.708;7.134;2023-02-20T01:39:42;10.50;;;6.30;;
71091;SDS011;58751;50.708;7.134;2023-02-20T01:42:11;6.35;;;5.03;;
71091;SDS011;58751;50.708;7.134;2023-02-20T01:44:38;7.20;;;5.45;;
71091;SDS011;58751;50.708;7.134;2023-02-20T01:47:05;8.00;;;4.63;;
71091;SDS011;58751;50.708;7.134;2023-02-20T01:49:31;7.97;;;5.68;;
71091;SDS011;58751;50.708;7.134;2023-02-20T01:52:00;7.57;;;5.43;;
71091;SDS011;58751;50.708;7.134;2023-02-20T01:54:28;7.60;;;5.28;;
71091;SDS011;58751;50.708;7.134;2023-02-20T01:56:54;6.75;;;4.93;;
71091;SDS011;58751;50.708;7.134;2023-02-20T01:59:21;6.05;;;4.90;;
71091;SDS011;58751;50.708;7.134;2023-02-20T02:01:47;8.02;;;5.57;;
71091;SDS011;58751;50.708;7.134;2023-02-20T02:04:12;10.40;;;5.43;;
71091;SDS011;58751;50.708;7.134;2023-02-20T02:06:39;8.13;;;5.30;;
71091;SDS011;58751;50.708;7.134;2023-02-20T02:09:07;6.18;;;5.57;;
71091;SDS011;58751;50.708;7.134;2023-02-20T02:11:34;6.80;;;5.60;;
71091;SDS011;58751;50.708;7.134;2023-02-20T02:13:59;6.72;;;4.18;;
71091;SDS011;58751;50.708;7.134;2023-02-20T02:16:26;7.07;;;5.30;;
71091;SDS011;58751;50.708;7.134;2023-02-20T02:18:54;7.93;;;5.70;;
71091;SDS011;58751;50.708;7.134;2023-02-20T02:21:35;6.28;;;4.30;;
71091;SDS011;58751;50.708;7.134;2023-02-20T02:32:37;4.35;;;3.90;;
71091;SDS011;58751;50.708;7.134;2023-02-20T02:35:14;7.88;;;4.85;;
71091;SDS011;58751;50.708;7.134;2023-02-20T02:37:44;4.68;;;3.40;;
71091;SDS011;58751;50.708;7.134;2023-02-20T02:40:13;5.45;;;3.97;;
71091;SDS011;58751;50.708;7.134;2023-02-20T02:42:40;5.10;;;4.10;;
71091;SDS011;58751;50.708;7.134;2023-02-20T02:45:11;5.32;;;3.88;;
71091;SDS011;58751;50.708;7.134;2023-02-20T02:47:40;6.10;;;3.90;;
71091;SDS011;58751;50.708;7.134;2023-02-20T02:50:11;5.68;;;3.35;;
71091;SDS011;58751;50.708;7.134;2023-02-20T02:52:37;7.32;;;4.60;;
71091;SDS011;58751;50.708;7.134;2023-02-20T02:55:04;7.30;;;4.80;;
71091;SDS011;58751;50.708;7.134;2023-02-20T02:57:30;8.23;;;4.80;;
71091;SDS011;58751;50.708;7.134;2023-02-20T02:59:56;8.50;;;5.30;;
71091;SDS011;58751;50.708;7.134;2023-02-20T03:02:23;7.10;;;4.85;;
71091;SDS011;58751;50.708;7.134;2023-02-20T03:04:50;7.00;;;4.70;;
71091;SDS011;58751;50.708;7.134;2023-02-20T03:07:16;22.08;;;6.68;;
71091;SDS011;58751;50.708;7.134;2023-02-20T03:09:42;8.37;;;5.17;;
71091;SDS011;58751;50.708;7.134;2023-02-20T03:12:10;7.35;;;5.03;;
71091;SDS011;58751;50.708;7.134;2023-02-20T03:14:37;5.88;;;4.85;;
71091;SDS011;58751;50.708;7.134;2023-02-20T03:17:05;8.52;;;6.03;;
71091;SDS011;58751;50.708;7.134;2023-02-20T03:19:32;7.00;;;5.50;;
71091;SDS011;58751;50.708;7.134;2023-02-20T03:21:59;10.30;;;6.50;;
71091;SDS011;58751;50.708;7.134;2023-02-20T03:24:26;9.40;;;5.97;;
71091;SDS011;58751;50.708;7.134;2023-02-20T03:26:53;10.35;;;6.00;;
71091;SDS011;58751;50.708;7.134;2023-02-20T03:29:21;14.02;;;6.75;;
71091;SDS011;58751;50.708;7.134;2023-02-20T03:31:48;8.80;;;7.15;;
71091;SDS011;58751;50.708;7.134;2023-02-20T03:34:15;11.70;;;6.32;;
71091;SDS011;58751;50.708;7.134;2023-02-20T03:36:44;12.13;;;7.65;;
71091;SDS011;58751;50.708;7.134;2023-02-20T03:39:11;9.70;;;7.35;;
71091;SDS011;58751;50.708;7.134;2023-02-20T03:41:37;9.80;;;7.18;;
71091;SDS011;58751;50.708;7.134;2023-02-20T03:44:04;9.98;;;7.13;;
71091;SDS011;58751;50.708;7.134;2023-02-20T03:46:32;11.60;;;7.57;;
71091;SDS011;58751;50.708;7.134;2023-02-20T03:48:59;10.45;;;7.45;;
71091;SDS011;58751;50.708;7.134;2023-02-20T03:51:26;8.65;;;7.32;;
71091;SDS011;58751;50.708;7.134;2023-02-20T03:53:52;11.73;;;6.97;;
71091;SDS011;58751;50.708;7.134;2023-02-20T03:56:19;11.37;;;7.90;;
71091;SDS011;58751;50.708;7.134;2023-02-20T03:58:46;10.00;;;6.38;;
71091;SDS011;58751;50.708;7.134;2023-02-20T04:01:13;9.07;;;7.32;;
71091;SDS011;58751;50.708;7.134;2023-02-20T04:03:41;14.07;;;7.60;;
71091;SDS011;58751;50.708;7.134;2023-02-20T04:06:08;11.80;;;6.70;;
71091;SDS011;58751;50.708;7.134;2023-02-20T04:08:35;11.13;;;6.57;;
71091;SDS011;58751;50.708;7.134;2023-02-20T04:11:02;13.07;;;6.20;;
71091;SDS011;58751;50.708;7.134;2023-02-20T04:13:29;13.80;;;7.40;;
71091;SDS011;58751;50.708;7.134;2023-02-20T04:15:57;14.82;;;7.38;;
71091;SDS011;58751;50.708;7.134;2023-02-20T04:18:23;11.95;;;7.35;;
71091;SDS011;58751;50.708;7.134;2023-02-20T04:20:50;9.90;;;6.60;;
71091;SDS011;58751;50.708;7.134;2023-02-20T04:23:18;13.70;;;7.78;;
71091;SDS011;58751;50.708;7.134;2023-02-20T04:25:44;11.43;;;7.65;;
71091;SDS011;58751;50.708;7.134;2023-02-20T04:28:11;8.20;;;6.20;;
71091;SDS011;58751;50.708;7.134;2023-02-20T04:30:36;8.50;;;6.00;;
71091;SDS011;58751;50.708;7.134;2023-02-20T04:33:02;11.63;;;7.60;;
71091;SDS011;58751;50.708;7.134;2023-02-20T04:35:27;11.97;;;8.27;;
71091;SDS011;58751;50.708;7.134;2023-02-20T04:37:54;10.83;;;6.67;;
71091;SDS011;58751;50.708;7.134;2023-02-20T04:40:20;7.35;;;6.25;;
71091;SDS011;58751;50.708;7.134;2023-02-20T04:42:46;9.63;;;6.60;;
71091;SDS011;58751;50.708;7.134;2023-02-20T04:45:11;10.80;;;6.00;;
71091;SDS011;58751;50.708;7.134;2023-02-20T04:47:37;11.80;;;7.13;;
71091;SDS011;58751;50.708;7.134;2023-02-20T04:50:02;8.87;;;7.40;;
71091;SDS011;58751;50.708;7.134;2023-02-20T04:52:27;8.83;;;7.07;;
71091;SDS011;58751;50.708;7.134;2023-02-20T04:54:54;6.80;;;5.80;;
71091;SDS011;58751;50.708;7.134;2023-02-20T04:57:19;15.38;;;7.38;;
71091;SDS011;58751;50.708;7.134;2023-02-20T04:59:44;14.30;;;7.63;;
71091;SDS011;58751;50.708;7.134;2023-02-20T05:02:09;11.07;;;6.90;;
71091;SDS011;58751;50.708;7.134;2023-02-20T05:04:35;10.30;;;6.60;;
71091;SDS011;58751;50.708;7.134;2023-02-20T05:07:00;10.90;;;7.03;;
71091;SDS011;58751;50.708;7.134;2023-02-20T05:09:25;8.63;;;6.60;;
71091;SDS011;58751;50.708;7.134;2023-02-20T05:11:52;9.97;;;6.27;;
71091;SDS011;58751;50.708;7.134;2023-02-20T05:14:17;9.05;;;6.32;;
71091;SDS011;58751;50.708;7.134;2023-02-20T05:16:43;10.93;;;6.77;;
71091;SDS011;58751;50.708;7.134;2023-02-20T05:19:08;10.40;;;7.10;;
71091;SDS011;58751;50.708;7.134;2023-02-20T05:21:33;9.77;;;7.13;;
71091;SDS011;58751;50.708;7.134;2023-02-20T05:23:58;10.73;;;6.37;;
71091;SDS011;58751;50.708;7.134;2023-02-20T05:26:24;8.80;;;6.10;;
71091;SDS011;58751;50.708;7.134;2023-02-20T05:28:50;9.67;;;7.13;;
71091;SDS011;58751;50.708;7.134;2023-02-20T05:31:15;10.38;;;6.47;;
71091;SDS011;58751;50.708;7.134;2023-02-20T05:33:41;11.23;;;7.27;;
71091;SDS011;58751;50.708;7.134;2023-02-20T05:36:06;9.43;;;7.03;;
71091;SDS011;58751;50.708;7.134;2023-02-20T05:38:31;8.37;;;6.67;;
71091;SDS011;58751;50.708;7.134;2023-02-20T05:40:57;9.77;;;6.67;;
71091;SDS011;58751;50.708;7.134;2023-02-20T05:43:22;9.90;;;5.57;;
71091;SDS011;58751;50.708;7.134;2023-02-20T05:45:49;11.10;;;7.20;;
71091;SDS011;58751;50.708;7.134;2023-02-20T05:48:14;7.80;;;5.90;;
71091;SDS011;58751;50.708;7.134;2023-02-20T05:50:39;9.20;;;6.43;;
71091;SDS011;58751;50.708;7.134;2023-02-20T05:53:05;8.70;;;5.47;;
71091;SDS011;58751;50.708;7.134;2023-02-20T05:55:30;7.70;;;5.40;;
71091;SDS011;58751;50.708;7.134;2023-02-20T05:57:55;9.70;;;5.50;;
71091;SDS011;58751;50.708;7.134;2023-02-20T06:00:21;8.70;;;5.33;;
71091;SDS011;58751;50.708;7.134;2023-02-20T06:02:47;10.03;;;6.03;;
71091;SDS011;58751;50.708;7.134;2023-02-20T06:05:12;7.30;;;5.88;;
71091;SDS011;58751;50.708;7.134;2023-02-20T06:07:38;9.17;;;5.93;;
71091;SDS011;58751;50.708;7.134;2023-02-20T06:10:03;8.10;;;5.70;;
71091;SDS011;58751;50.708;7.134;2023-02-20T06:12:28;7.03;;;5.90;;
71091;SDS011;58751;50.708;7.134;2023-02-20T06:14:54;12.10;;;6.43;;
71091;SDS011;58751;50.708;7.134;2023-02-20T06:17:19;8.10;;;6.10;;
71091;SDS011;58751;50.708;7.134;2023-02-20T06:19:45;11.53;;;6.87;;
71091;SDS011;58751;50.708;7.134;2023-02-20T06:22:10;10.15;;;6.55;;
71091;SDS011;58751;50.708;7.134;2023-02-20T06:24:36;10.37;;;6.37;;
71091;SDS011;58751;50.708;7.134;2023-02-20T06:27:01;8.47;;;6.33;;
71091;SDS011;58751;50.708;7.134;2023-02-20T06:29:26;7.77;;;5.90;;
71091;SDS011;58751;50.708;7.134;2023-02-20T06:31:51;9.93;;;5.70;;
71091;SDS011;58751;50.708;7.134;2023-02-20T06:34:17;10.30;;;6.10;;
71091;SDS011;58751;50.708;7.134;2023-02-20T06:36:44;10.07;;;7.17;;
71091;SDS011;58751;50.708;7.134;2023-02-20T06:39:10;9.80;;;6.30;;
71091;SDS011;58751;50.708;7.134;2023-02-20T06:41:36;9.52;;;7.03;;
71091;SDS011;58751;50.708;7.134;2023-02-20T06:44:01;10.00;;;5.80;;
71091;SDS011;58751;50.708;7.134;2023-02-20T06:46:26;10.20;;;6.10;;
71091;SDS011;58751;50.708;7.134;2023-02-20T06:48:52;9.97;;;6.63;;
71091;SDS011;58751;50.708;7.134;2023-02-20T06:51:18;12.95;;;6.00;;
71091;SDS011;58751;50.708;7.134;2023-02-20T06:53:44;7.67;;;5.77;;
71091;SDS011;58751;50.708;7.134;2023-02-20T06:56:13;7.65;;;5.45;;
71091;SDS011;58751;50.708;7.134;2023-02-20T06:58:38;9.00;;;5.72;;
71091;SDS011;58751;50.708;7.134;2023-02-20T07:01:03;9.93;;;6.47;;
71091;SDS011;58751;50.708;7.134;2023-02-20T07:03:28;9.53;;;5.63;;
71091;SDS011;58751;50.708;7.134;2023-02-20T07:05:54;7.00;;;5.17;;
71091;SDS011;58751;50.708;7.134;2023-02-20T07:08:19;9.50;;;5.27;;
71091;SDS011;58751;50.708;7.134;2023-02-20T07:10:45;9.10;;;6.40;;
71091;SDS011;58751;50.708;7.134;2023-02-20T07:13:11;10.13;;;5.28;;
71091;SDS011;58751;50.708;7.134;2023-02-20T07:15:36;6.83;;;4.60;;
71091;SDS011;58751;50.708;7.134;2023-02-20T07:18:01;8.53;;;6.20;;
71091;SDS011;58751;50.708;7.134;2023-02-20T07:20:26;6.83;;;4.90;;
71091;SDS011;58751;50.708;7.134;2023-02-20T07:22:51;7.97;;;5.23;;
71091;SDS011;58751;50.708;7.134;2023-02-20T07:25:17;7.20;;;4.70;;
71091;SDS011;58751;50.708;7.134;2023-02-20T07:27:43;9.43;;;5.37;;
71091;SDS011;58751;50.708;7.134;2023-02-20T07:30:09;6.85;;;4.85;;
71091;SDS011;58751;50.708;7.134;2023-02-20T07:32:34;11.10;;;5.67;;
71091;SDS011;58751;50.708;7.134;2023-02-20T07:35:00;7.20;;;4.90;;
71091;SDS011;58751;50.708;7.134;2023-02-20T07:37:25;8.10;;;5.37;;
71091;SDS011;58751;50.708;7.134;2023-02-20T07:39:50;6.83;;;4.77;;
71091;SDS011;58751;50.708;7.134;2023-02-20T07:42:15;10.00;;;4.77;;
71091;SDS011;58751;50.708;7.134;2023-02-20T07:44:43;6.13;;;5.00;;
71091;SDS011;58751;50.708;7.134;2023-02-20T07:47:08;7.03;;;5.88;;
71091;SDS011;58751;50.708;7.134;2023-02-20T07:49:34;5.90;;;5.10;;
71091;SDS011;58751;50.708;7.134;2023-02-20T07:51:59;7.30;;;4.73;;
71091;SDS011;58751;50.708;7.134;2023-02-20T07:54:24;5.53;;;4.90;;
71091;SDS011;58751;50.708;7.134;2023-02-20T07:56:49;4.87;;;4.37;;
71091;SDS011;58751;50.708;7.134;2023-02-20T07:59:14;5.37;;;3.90;;
71091;SDS011;58751;50.708;7.134;2023-02-20T08:01:41;5.83;;;4.30;;
71091;SDS011;58751;50.708;7.134;2023-02-20T08:04:06;6.80;;;4.03;;
71091;SDS011;58751;50.708;7.134;2023-02-20T08:06:31;6.30;;;4.53;;
71091;SDS011;58751;50.708;7.134;2023-02-20T08:08:57;4.97;;;4.47;;
71091;SDS011;58751;50.708;7.134;2023-02-20T08:11:22;4.90;;;4.20;;
71091;SDS011;58751;50.708;7.134;2023-02-20T08:13:47;5.47;;;3.83;;
71091;SDS011;58751;50.708;7.134;2023-02-20T08:16:13;7.10;;;5.07;;
71091;SDS011;58751;50.708;7.134;2023-02-20T08:18:39;7.23;;;4.70;;
71091;SDS011;58751;50.708;7.134;2023-02-20T08:21:05;7.85;;;4.55;;
71091;SDS011;58751;50.708;7.134;2023-02-20T08:23:30;7.90;;;6.53;;
71091;SDS011;58751;50.708;7.134;2023-02-20T08:25:55;10.27;;;6.80;;
71091;SDS011;58751;50.708;7.134;2023-02-20T08:28:20;7.87;;;5.80;;
71091;SDS011;58751;50.708;7.134;2023-02-20T08:30:46;4.80;;;4.40;;
71091;SDS011;58751;50.708;7.134;2023-02-20T08:33:11;6.70;;;4.87;;
71091;SDS011;58751;50.708;7.134;2023-02-20T08:35:38;5.40;;;4.90;;
71091;SDS011;58751;50.708;7.134;2023-02-20T08:38:04;7.97;;;5.30;;
71091;SDS011;58751;50.708;7.134;2023-02-20T08:40:29;6.73;;;4.17;;
71091;SDS011;58751;50.708;7.134;2023-02-20T08:42:54;7.40;;;4.30;;
71091;SDS011;58751;50.708;7.134;2023-02-20T08:45:19;5.50;;;4.63;;
71091;SDS011;58751;50.708;7.134;2023-02-20T08:47:45;6.73;;;4.20;;
71091;SDS011;58751;50.708;7.134;2023-02-20T08:50:10;5.37;;;4.10;;
71091;SDS011;58751;50.708;7.134;2023-02-20T08:52:36;4.77;;;3.40;;
71091;SDS011;58751;50.708;7.134;2023-02-20T08:55:02;3.97;;;2.83;;
71091;SDS011;58751;50.708;7.134;2023-02-20T08:57:27;4.23;;;3.00;;
71091;SDS011;58751;50.708;7.134;2023-02-20T08:59:52;5.63;;;3.50;;
71091;SDS011;58751;50.708;7.134;2023-02-20T09:02:18;3.87;;;2.90;;
71091;SDS011;58751;50.708;7.134;2023-02-20T09:04:43;6.27;;;2.80;;
71091;SDS011;58751;50.708;7.134;2023-02-20T09:07:09;5.40;;;3.10;;
71091;SDS011;58751;50.708;7.134;2023-02-20T09:09:35;3.50;;;2.63;;
71091;SDS011;58751;50.708;7.134;2023-02-20T09:12:01;4.20;;;3.03;;
71091;SDS011;58751;50.708;7.134;2023-02-20T09:14:26;2.87;;;2.63;;
71091;SDS011;58751;50.708;7.134;2023-02-20T09:16:51;3.13;;;2.87;;
71091;SDS011;58751;50.708;7.134;2023-02-20T09:19:16;4.97;;;2.70;;
71091;SDS011;58751;50.708;7.134;2023-02-20T09:21:44;5.10;;;3.20;;
71091;SDS011;58751;50.708;7.134;2023-02-20T09:24:09;6.60;;;3.10;;
71091;SDS011;58751;50.708;7.134;2023-02-20T09:26:36;4.53;;;2.50;;
71091;SDS011;58751;50.708;7.134;2023-02-20T09:29:01;4.10;;;2.90;;
71091;SDS011;58751;50.708;7.134;2023-02-20T09:31:26;4.67;;;2.77;;
71091;SDS011;58751;50.708;7.134;2023-02-20T09:33:51;2.63;;;2.43;;
71091;SDS011;58751;50.708;7.134;2023-02-20T09:36:16;5.33;;;3.30;;
71091;SDS011;58751;50.708;7.134;2023-02-20T09:38:42;3.90;;;2.83;;
71091;SDS011;58751;50.708;7.134;2023-02-20T09:41:09;4.97;;;2.97;;
71091;SDS011;58751;50.708;7.134;2023-02-20T09:43:40;4.80;;;3.23;;
71091;SDS011;58751;50.708;7.134;2023-02-20T09:46:08;4.10;;;3.10;;
71091;SDS011;58751;50.708;7.134;2023-02-20T09:48:39;3.63;;;3.03;;
71091;SDS011;58751;50.708;7.134;2023-02-20T09:51:08;6.00;;;3.23;;
71091;SDS011;58751;50.708;7.134;2023-02-20T09:53:36;5.47;;;3.67;;
71091;SDS011;58751;50.708;7.134;2023-02-20T09:56:03;4.83;;;3.23;;
71091;SDS011;58751;50.708;7.134;2023-02-20T09:58:39;6.13;;;3.80;;
71091;SDS011;58751;50.708;7.134;2023-02-20T10:01:06;10.07;;;6.30;;
71091;SDS011;58751;50.708;7.134;2023-02-20T10:03:33;6.10;;;4.00;;
71091;SDS011;58751;50.708;7.134;2023-02-20T10:05:59;5.07;;;3.77;;
71091;SDS011;58751;50.708;7.134;2023-02-20T10:08:25;4.20;;;3.80;;
71091;SDS011;58751;50.708;7.134;2023-02-20T10:10:50;5.77;;;3.50;;
71091;SDS011;58751;50.708;7.134;2023-02-20T10:16:01;5.70;;;4.70;;
71091;SDS011;58751;50.708;7.134;2023-02-20T10:18:32;7.43;;;4.07;;
71091;SDS011;58751;50.708;7.134;2023-02-20T10:21:00;5.63;;;3.70;;
71091;SDS011;58751;50.708;7.134;2023-02-20T10:23:31;7.57;;;4.10;;
71091;SDS011;58751;50.708;7.134;2023-02-20T10:25:58;4.03;;;2.93;;
71091;SDS011;58751;50.708;7.134;2023-02-20T10:28:24;6.03;;;3.13;;
71091;SDS011;58751;50.708;7.134;2023-02-20T10:30:52;5.67;;;3.77;;
71091;SDS011;58751;50.708;7.134;2023-02-20T10:33:21;4.50;;;3.10;;
71091;SDS011;58751;50.708;7.134;2023-02-20T10:35:50;5.63;;;3.40;;
71091;SDS011;58751;50.708;7.134;2023-02-20T10:38:18;5.10;;;3.40;;
71091;SDS011;58751;50.708;7.134;2023-02-20T10:40:44;4.47;;;3.33;;
71091;SDS011;58751;50.708;7.134;2023-02-20T10:43:13;5.47;;;3.13;;
71091;SDS011;58751;50.708;7.134;2023-02-20T10:45:43;4.73;;;3.10;;
71091;SDS011;58751;50.708;7.134;2023-02-20T10:48:11;4.47;;;3.03;;
71091;SDS011;58751;50.708;7.134;2023-02-20T10:50:38;6.20;;;3.30;;
71091;SDS011;58751;50.708;7.134;2023-02-20T10:53:09;5.27;;;2.80;;
71091;SDS011;58751;50.708;7.134;2023-02-20T10:55:38;3.90;;;3.50;;
71091;SDS011;58751;50.708;7.134;2023-02-20T10:58:06;5.93;;;3.90;;
71091;SDS011;58751;50.708;7.134;2023-02-20T11:00:34;9.47;;;3.20;;
71091;SDS011;58751;50.708;7.134;2023-02-20T11:03:02;4.37;;;3.57;;
71091;SDS011;58751;50.708;7.134;2023-02-20T11:05:29;10.47;;;4.50;;
71091;SDS011;58751;50.708;7.134;2023-02-20T11:07:56;5.87;;;5.37;;
71091;SDS011;58751;50.708;7.134;2023-02-20T11:10:23;7.87;;;3.97;;
71091;SDS011;58751;50.708;7.134;2023-02-20T11:12:48;4.53;;;3.47;;
71091;SDS011;58751;50.708;7.134;2023-02-20T11:15:15;4.93;;;4.50;;
71091;SDS011;58751;50.708;7.134;2023-02-20T11:17:41;11.03;;;5.77;;
71091;SDS011;58751;50.708;7.134;2023-02-20T11:20:35;4.60;;;4.20;;
71091;SDS011;58751;50.708;7.134;2023-02-20T11:22:59;7.63;;;3.90;;
71091;SDS011;58751;50.708;7.134;2023-02-20T11:25:27;6.30;;;3.33;;
71091;SDS011;58751;50.708;7.134;2023-02-20T11:27:53;4.57;;;4.00;;
71091;SDS011;58751;50.708;7.134;2023-02-20T11:30:26;4.50;;;4.10;;
71091;SDS011;58751;50.708;7.134;2023-02-20T11:32:58;5.10;;;3.60;;
71091;SDS011;58751;50.708;7.134;2023-02-20T11:35:27;3.73;;;3.40;;
71091;SDS011;58751;50.708;7.134;2023-02-20T11:40:35;5.87;;;3.73;;
71091;SDS011;58751;50.708;7.134;2023-02-20T11:43:08;4.60;;;3.47;;
71091;SDS011;58751;50.708;7.134;2023-02-20T11:45:33;8.13;;;4.13;;
71091;SDS011;58751;50.708;7.134;2023-02-20T11:48:05;4.20;;;3.30;;
71091;SDS011;58751;50.708;7.134;2023-02-20T11:50:36;4.57;;;2.70;;
71091;SDS011;58751;50.708;7.134;2023-02-20T11:53:03;8.73;;;7.47;;
71091;SDS011;58751;50.708;7.134;2023-02-20T11:55:28;7.20;;;4.40;;
71091;SDS011;58751;50.708;7.134;2023-02-20T11:57:55;4.97;;;4.33;;
71091;SDS011;58751;50.708;7.134;2023-02-20T12:00:21;4.00;;;3.13;;
71091;SDS011;58751;50.708;7.134;2023-02-20T12:02:48;6.73;;;4.40;;
71091;SDS011;58751;50.708;7.134;2023-02-20T12:05:14;6.17;;;4.13;;
71091;SDS011;58751;50.708;7.134;2023-02-20T12:07:41;5.40;;;4.00;;
71091;SDS011;58751;50.708;7.134;2023-02-20T12:12:50;6.87;;;4.50;;
71091;SDS011;58751;50.708;7.134;2023-02-20T12:15:19;6.20;;;3.93;;
71091;SDS011;58751;50.708;7.134;2023-02-20T12:17:48;7.43;;;4.00;;
71091;SDS011;58751;50.708;7.134;2023-02-20T12:20:18;4.20;;;3.80;;
71091;SDS011;58751;50.708;7.134;2023-02-20T12:22:44;7.30;;;4.60;;
71091;SDS011;58751;50.708;7.134;2023-02-20T12:25:15;4.33;;;3.93;;
71091;SDS011;58751;50.708;7.134;2023-02-20T12:27:45;5.40;;;4.47;;
71091;SDS011;58751;50.708;7.134;2023-02-20T12:30:19;6.57;;;3.90;;
71091;SDS011;58751;50.708;7.134;2023-02-20T12:32:49;5.30;;;4.57;;
71091;SDS011;58751;50.708;7.134;2023-02-20T12:35:27;5.33;;;3.90;;
71091;SDS011;58751;50.708;7.134;2023-02-20T12:37:55;5.37;;;3.93;;
71091;SDS011;58751;50.708;7.134;2023-02-20T12:40:29;7.90;;;4.60;;
71091;SDS011;58751;50.708;7.134;2023-02-20T12:42:59;5.53;;;3.77;;
71091;SDS011;58751;50.708;7.134;2023-02-20T12:45:31;6.07;;;4.90;;
71091;SDS011;58751;50.708;7.134;2023-02-20T12:48:03;5.60;;;3.97;;
71091;SDS011;58751;50.708;7.134;2023-02-20T12:50:37;6.23;;;4.57;;
71091;SDS011;58751;50.708;7.134;2023-02-20T12:53:18;5.47;;;4.90;;
71091;SDS011;58751;50.708;7.134;2023-02-20T12:55:47;5.40;;;4.63;;
71091;SDS011;58751;50.708;7.134;2023-02-20T12:58:17;5.73;;;4.97;;
71091;SDS011;58751;50.708;7.134;2023-02-20T13:00:47;5.27;;;4.43;;
71091;SDS011;58751;50.708;7.134;2023-02-20T13:03:15;5.60;;;4.90;;
71091;SDS011;58751;50.708;7.134;2023-02-20T13:05:42;9.83;;;6.10;;
71091;SDS011;58751;50.708;7.134;2023-02-20T13:08:10;8.13;;;6.60;;
71091;SDS011;58751;50.708;7.134;2023-02-20T13:10:38;6.20;;;5.60;;
71091;SDS011;58751;50.708;7.134;2023-02-20T13:13:07;6.20;;;5.60;;
71091;SDS011;58751;50.708;7.134;2023-02-20T13:15:35;6.90;;;5.90;;
71091;SDS011;58751;50.708;7.134;2023-02-20T13:18:05;6.57;;;5.70;;
71091;SDS011;58751;50.708;7.134;2023-02-20T13:20:35;8.00;;;5.83;;
71091;SDS011;58751;50.708;7.134;2023-02-20T13:23:03;6.63;;;5.83;;
71091;SDS011;58751;50.708;7.134;2023-02-20T13:25:36;11.40;;;5.77;;
71091;SDS011;58751;50.708;7.134;2023-02-20T13:28:05;9.63;;;6.50;;
71091;SDS011;58751;50.708;7.134;2023-02-20T13:30:38;7.33;;;6.00;;
71091;SDS011;58751;50.708;7.134;2023-02-20T13:33:18;6.97;;;6.10;;
71091;SDS011;58751;50.708;7.134;2023-02-20T13:35:47;8.40;;;6.33;;
71091;SDS011;58751;50.708;7.134;2023-02-20T13:38:15;7.80;;;7.00;;
71091;SDS011;58751;50.708;7.134;2023-02-20T13:40:43;12.73;;;7.10;;
71091;SDS011;58751;50.708;7.134;2023-02-20T13:43:18;11.23;;;7.70;;
71091;SDS011;58751;50.708;7.134;2023-02-20T13:45:48;8.40;;;6.60;;
71091;SDS011;58751;50.708;7.134;2023-02-20T13:53:38;7.20;;;6.40;;
71091;SDS011;58751;50.708;7.134;2023-02-20T13:56:04;10.93;;;7.43;;
71091;SDS011;58751;50.708;7.134;2023-02-20T13:58:29;10.60;;;6.60;;
71091;SDS011;58751;50.708;7.134;2023-02-20T14:00:54;9.40;;;5.97;;
71091;SDS011;58751;50.708;7.134;2023-02-20T14:03:21;10.13;;;6.73;;
71091;SDS011;58751;50.708;7.134;2023-02-20T14:05:59;8.07;;;6.33;;
71091;SDS011;58751;50.708;7.134;2023-02-20T14:08:25;9.57;;;7.20;;
71091;SDS011;58751;50.708;7.134;2023-02-20T14:10:51;8.87;;;7.20;;
71091;SDS011;58751;50.708;7.134;2023-02-20T14:13:17;9.20;;;6.37;;
71091;SDS011;58751;50.708;7.134;2023-02-20T14:15:44;7.77;;;6.47;;
71091;SDS011;58751;50.708;7.134;2023-02-20T14:18:13;6.57;;;5.90;;
71091;SDS011;58751;50.708;7.134;2023-02-20T14:20:39;6.93;;;5.93;;
71091;SDS011;58751;50.708;7.134;2023-02-20T14:23:06;8.30;;;6.50;;
71091;SDS011;58751;50.708;7.134;2023-02-20T14:25:32;11.00;;;7.90;;
71091;SDS011;58751;50.708;7.134;2023-02-20T14:28:05;8.90;;;6.00;;
71091;SDS011;58751;50.708;7.134;2023-02-20T14:30:31;9.93;;;6.90;;
71091;SDS011;58751;50.708;7.134;2023-02-20T14:32:56;8.43;;;6.57;;
71091;SDS011;58751;50.708;7.134;2023-02-20T14:35:25;9.50;;;6.93;;
71091;SDS011;58751;50.708;7.134;2023-02-20T14:37:54;7.93;;;5.93;;
71091;SDS011;58751;50.708;7.134;2023-02-20T14:40:22;7.70;;;5.70;;
71091;SDS011;58751;50.708;7.134;2023-02-20T14:42:51;8.37;;;6.30;;
71091;SDS011;58751;50.708;7.134;2023-02-20T14:45:18;7.40;;;5.97;;
71091;SDS011;58751;50.708;7.134;2023-02-20T14:47:49;6.33;;;4.80;;
71091;SDS011;58751;50.708;7.134;2023-02-20T14:50:15;7.33;;;5.50;;
71091;SDS011;58751;50.708;7.134;2023-02-20T14:52:41;9.03;;;5.00;;
71091;SDS011;58751;50.708;7.134;2023-02-20T14:55:13;5.60;;;4.77;;
71091;SDS011;58751;50.708;7.134;2023-02-20T14:57:38;6.20;;;4.70;;
71091;SDS011;58751;50.708;7.134;2023-02-20T15:00:20;5.30;;;4.00;;
71091;SDS011;58751;50.708;7.134;2023-02-20T15:02:48;7.57;;;5.23;;
71091;SDS011;58751;50.708;7.134;2023-02-20T15:05:16;5.33;;;4.47;;